Los Nietos, California
Current Conditions -  °F | °C
As of 5:53 PM on Wednesday 26 Nov 2014 (Local Time) from KFUL Reporting Station
Clear Clear  
Wind Chill: 70°   Ceiling: Unl
Heat Index: 70°   Visibility: 8mi
Dew Point: 45°   Wind: 0mph
Humidity: 41%   Direction: NA
Pressure: 30.11"   Gusts: NA
Location:  33.9685°N, 118.069°W
Report Text: KFUL 270153Z 00000KT 8SM CLR 21/07 A3011 RMK AO2 SLP195 T02110072
Loading
Personal Weather Stations






























Interactive Weather Map New forecast layout! Learn more

10-Day Weather Forecast

Advertisements
Track Severe Weather on mobile